sensor_id;sensor_type;location;lat;lon;timestamp;temperature;humidity
16491;DHT22;8356;51.214;3.270;2022-11-20T00:00:06;230.80;2252.80
16491;DHT22;8356;51.214;3.270;2022-11-20T00:02:32;230.80;2252.80
16491;DHT22;8356;51.214;3.270;2022-11-20T00:04:57;230.80;2252.80
16491;DHT22;8356;51.214;3.270;2022-11-20T00:07:23;230.80;2252.80
16491;DHT22;8356;51.214;3.270;2022-11-20T00:09:48;230.90;2252.80
16491;DHT22;8356;51.214;3.270;2022-11-20T00:12:14;230.90;2252.80
16491;DHT22;8356;51.214;3.270;2022-11-20T00:14:40;231.00;2252.80
16491;DHT22;8356;51.214;3.270;2022-11-20T00:17:06;230.90;2252.80
16491;DHT22;8356;51.214;3.270;2022-11-20T00:19:32;230.80;2252.80
16491;DHT22;8356;51.214;3.270;2022-11-20T00:21:58;230.90;2252.80
16491;DHT22;8356;51.214;3.270;2022-11-20T00:24:23;230.90;2252.80
16491;DHT22;8356;51.214;3.270;2022-11-20T00:26:49;230.60;2252.80
16491;DHT22;8356;51.214;3.270;2022-11-20T00:29:14;230.60;2252.80
16491;DHT22;8356;51.214;3.270;2022-11-20T00:31:40;230.40;2252.80
16491;DHT22;8356;51.214;3.270;2022-11-20T00:34:06;205.60;2252.80
16491;DHT22;8356;51.214;3.270;2022-11-20T00:36:33;205.60;2252.80
16491;DHT22;8356;51.214;3.270;2022-11-20T00:38:59;205.70;2252.80
16491;DHT22;8356;51.214;3.270;2022-11-20T00:41:26;230.50;2252.80
16491;DHT22;8356;51.214;3.270;2022-11-20T00:43:54;205.70;2252.80
16491;DHT22;8356;51.214;3.270;2022-11-20T00:46:22;205.60;2252.80
16491;DHT22;8356;51.214;3.270;2022-11-20T00:48:48;205.30;2252.80
16491;DHT22;8356;51.214;3.270;2022-11-20T00:51:16;205.00;2252.80
16491;DHT22;8356;51.214;3.270;2022-11-20T00:53:42;205.50;2252.80
16491;DHT22;8356;51.214;3.270;2022-11-20T00:56:11;205.60;2252.80
16491;DHT22;8356;51.214;3.270;2022-11-20T00:58:39;230.50;2252.80
16491;DHT22;8356;51.214;3.270;2022-11-20T01:01:08;230.70;2252.80
16491;DHT22;8356;51.214;3.270;2022-11-20T01:03:36;230.60;2252.80
16491;DHT22;8356;51.214;3.270;2022-11-20T01:06:08;230.80;2252.80
16491;DHT22;8356;51.214;3.270;2022-11-20T01:08:36;230.70;2252.80
16491;DHT22;8356;51.214;3.270;2022-11-20T01:11:07;230.70;2252.80
16491;DHT22;8356;51.214;3.270;2022-11-20T01:13:34;230.70;2252.80
16491;DHT22;8356;51.214;3.270;2022-11-20T01:18:33;230.80;2252.80
16491;DHT22;8356;51.214;3.270;2022-11-20T01:21:04;230.70;2252.80
16491;DHT22;8356;51.214;3.270;2022-11-20T01:23:32;230.60;2252.80
16491;DHT22;8356;51.214;3.270;2022-11-20T01:26:00;230.70;2252.80
16491;DHT22;8356;51.214;3.270;2022-11-20T01:28:25;230.60;2252.80
16491;DHT22;8356;51.214;3.270;2022-11-20T01:30:51;230.70;2252.80
16491;DHT22;8356;51.214;3.270;2022-11-20T01:33:17;230.80;2252.80
16491;DHT22;8356;51.214;3.270;2022-11-20T01:35:42;230.50;2252.80
16491;DHT22;8356;51.214;3.270;2022-11-20T01:38:08;230.70;2252.80
16491;DHT22;8356;51.214;3.270;2022-11-20T01:40:33;230.80;2252.80
16491;DHT22;8356;51.214;3.270;2022-11-20T01:43:15;230.80;2252.80
16491;DHT22;8356;51.214;3.270;2022-11-20T01:48:24;231.00;2252.80
16491;DHT22;8356;51.214;3.270;2022-11-20T01:50:52;230.90;2252.80
16491;DHT22;8356;51.214;3.270;2022-11-20T01:53:22;230.80;2252.80
16491;DHT22;8356;51.214;3.270;2022-11-20T01:55:54;230.90;2252.80
16491;DHT22;8356;51.214;3.270;2022-11-20T01:58:22;230.90;2252.80
16491;DHT22;8356;51.214;3.270;2022-11-20T02:00:49;231.00;2252.80
16491;DHT22;8356;51.214;3.270;2022-11-20T02:03:19;230.90;2252.80
16491;DHT22;8356;51.214;3.270;2022-11-20T02:05:51;230.80;2252.80
16491;DHT22;8356;51.214;3.270;2022-11-20T02:08:20;230.90;2252.80
16491;DHT22;8356;51.214;3.270;2022-11-20T02:10:46;231.00;2252.80
16491;DHT22;8356;51.214;3.270;2022-11-20T02:13:12;231.00;2252.80
16491;DHT22;8356;51.214;3.270;2022-11-20T02:15:56;230.90;2252.80
16491;DHT22;8356;51.214;3.270;2022-11-20T02:18:23;230.80;2252.80
16491;DHT22;8356;51.214;3.270;2022-11-20T02:21:01;230.90;2252.80
16491;DHT22;8356;51.214;3.270;2022-11-20T02:23:32;230.90;2252.80
16491;DHT22;8356;51.214;3.270;2022-11-20T02:26:03;230.80;2252.80
16491;DHT22;8356;51.214;3.270;2022-11-20T02:28:31;230.80;2252.80
16491;DHT22;8356;51.214;3.270;2022-11-20T02:30:56;230.70;2252.80
16491;DHT22;8356;51.214;3.270;2022-11-20T02:33:22;230.60;2252.80
16491;DHT22;8356;51.214;3.270;2022-11-20T02:35:48;230.70;2252.80
16491;DHT22;8356;51.214;3.270;2022-11-20T02:38:14;230.70;2252.80
16491;DHT22;8356;51.214;3.270;2022-11-20T02:40:40;230.80;2252.80
16491;DHT22;8356;51.214;3.270;2022-11-20T02:43:07;256.00;2252.80
16491;DHT22;8356;51.214;3.270;2022-11-20T02:45:33;230.90;2252.80
16491;DHT22;8356;51.214;3.270;2022-11-20T02:47:58;230.90;2252.80
16491;DHT22;8356;51.214;3.270;2022-11-20T02:50:24;230.90;2252.80
16491;DHT22;8356;51.214;3.270;2022-11-20T02:52:50;230.90;2252.80
16491;DHT22;8356;51.214;3.270;2022-11-20T02:55:15;230.70;2252.80
16491;DHT22;8356;51.214;3.270;2022-11-20T02:57:41;230.80;2252.80
16491;DHT22;8356;51.214;3.270;2022-11-20T03:00:07;230.80;2252.80
16491;DHT22;8356;51.214;3.270;2022-11-20T03:02:33;230.80;2252.80
16491;DHT22;8356;51.214;3.270;2022-11-20T03:04:59;231.00;2252.80
16491;DHT22;8356;51.214;3.270;2022-11-20T03:07:24;230.90;2252.80
16491;DHT22;8356;51.214;3.270;2022-11-20T03:09:50;230.90;2252.80
16491;DHT22;8356;51.214;3.270;2022-11-20T03:12:16;230.90;2252.80
16491;DHT22;8356;51.214;3.270;2022-11-20T03:14:42;230.80;2252.80
16491;DHT22;8356;51.214;3.270;2022-11-20T03:17:07;230.70;2252.80
16491;DHT22;8356;51.214;3.270;2022-11-20T03:19:33;230.90;2252.80
16491;DHT22;8356;51.214;3.270;2022-11-20T03:21:59;230.80;2252.80
16491;DHT22;8356;51.214;3.270;2022-11-20T03:24:25;230.80;2252.80
16491;DHT22;8356;51.214;3.270;2022-11-20T03:26:51;230.90;2252.80
16491;DHT22;8356;51.214;3.270;2022-11-20T03:29:17;230.80;2252.80
16491;DHT22;8356;51.214;3.270;2022-11-20T03:31:43;230.70;2252.80
16491;DHT22;8356;51.214;3.270;2022-11-20T03:34:10;230.70;2252.80
16491;DHT22;8356;51.214;3.270;2022-11-20T03:36:41;230.80;2252.80
16491;DHT22;8356;51.214;3.270;2022-11-20T03:39:07;230.60;2252.80
16491;DHT22;8356;51.214;3.270;2022-11-20T03:41:40;230.70;2252.80
16491;DHT22;8356;51.214;3.270;2022-11-20T03:44:08;230.70;2252.80
16491;DHT22;8356;51.214;3.270;2022-11-20T03:46:34;230.60;2252.80
16491;DHT22;8356;51.214;3.270;2022-11-20T03:48:59;230.70;2252.80
16491;DHT22;8356;51.214;3.270;2022-11-20T03:51:28;230.70;2252.80
16491;DHT22;8356;51.214;3.270;2022-11-20T03:53:57;230.60;2252.80
16491;DHT22;8356;51.214;3.270;2022-11-20T03:56:25;230.60;2252.80
16491;DHT22;8356;51.214;3.270;2022-11-20T03:58:51;230.60;2252.80
16491;DHT22;8356;51.214;3.270;2022-11-20T04:01:23;230.80;2252.80
16491;DHT22;8356;51.214;3.270;2022-11-20T04:03:49;230.70;2252.80
16491;DHT22;8356;51.214;3.270;2022-11-20T04:06:23;230.80;2252.80
16491;DHT22;8356;51.214;3.270;2022-11-20T04:08:49;230.80;2252.80
16491;DHT22;8356;51.214;3.270;2022-11-20T04:11:26;230.70;2252.80
16491;DHT22;8356;51.214;3.270;2022-11-20T04:14:01;230.70;2252.80
16491;DHT22;8356;51.214;3.270;2022-11-20T04:16:30;230.80;2252.80
16491;DHT22;8356;51.214;3.270;2022-11-20T04:19:00;230.80;2252.80
16491;DHT22;8356;51.214;3.270;2022-11-20T04:21:26;230.70;2252.80
16491;DHT22;8356;51.214;3.270;2022-11-20T04:23:52;230.60;2252.80
16491;DHT22;8356;51.214;3.270;2022-11-20T04:26:18;230.60;2252.80
16491;DHT22;8356;51.214;3.270;2022-11-20T04:28:44;230.60;2252.80
16491;DHT22;8356;51.214;3.270;2022-11-20T04:31:15;230.80;2252.80
16491;DHT22;8356;51.214;3.270;2022-11-20T04:33:41;230.80;2252.80
16491;DHT22;8356;51.214;3.270;2022-11-20T04:36:11;230.60;2252.80
16491;DHT22;8356;51.214;3.270;2022-11-20T04:38:36;230.60;2252.80
16491;DHT22;8356;51.214;3.270;2022-11-20T04:41:04;230.70;2252.80
16491;DHT22;8356;51.214;3.270;2022-11-20T04:43:31;230.60;2252.80
16491;DHT22;8356;51.214;3.270;2022-11-20T04:45:57;230.60;2252.80
16491;DHT22;8356;51.214;3.270;2022-11-20T04:48:23;230.60;2252.80
16491;DHT22;8356;51.214;3.270;2022-11-20T04:50:50;230.60;2252.80
16491;DHT22;8356;51.214;3.270;2022-11-20T04:53:16;230.50;2252.80
16491;DHT22;8356;51.214;3.270;2022-11-20T04:55:42;230.50;2252.80
16491;DHT22;8356;51.214;3.270;2022-11-20T04:58:07;230.40;2252.80
16491;DHT22;8356;51.214;3.270;2022-11-20T05:00:33;230.40;2252.80
16491;DHT22;8356;51.214;3.270;2022-11-20T05:02:59;230.40;2252.80
16491;DHT22;8356;51.214;3.270;2022-11-20T05:05:25;205.70;2252.80
16491;DHT22;8356;51.214;3.270;2022-11-20T05:07:51;205.60;2252.80
16491;DHT22;8356;51.214;3.270;2022-11-20T05:10:16;205.60;2252.80
16491;DHT22;8356;51.214;3.270;2022-11-20T05:12:42;205.70;2252.80
16491;DHT22;8356;51.214;3.270;2022-11-20T05:15:08;230.40;2252.80
16491;DHT22;8356;51.214;3.270;2022-11-20T05:17:33;230.50;2252.80
16491;DHT22;8356;51.214;3.270;2022-11-20T05:19:59;230.50;2252.80
16491;DHT22;8356;51.214;3.270;2022-11-20T05:22:25;205.70;2252.80
16491;DHT22;8356;51.214;3.270;2022-11-20T05:24:50;205.70;2252.80
16491;DHT22;8356;51.214;3.270;2022-11-20T05:27:16;205.70;2252.80
16491;DHT22;8356;51.214;3.270;2022-11-20T05:29:41;230.40;2252.80
16491;DHT22;8356;51.214;3.270;2022-11-20T05:32:07;205.70;2252.80
16491;DHT22;8356;51.214;3.270;2022-11-20T05:34:35;205.60;2252.80
16491;DHT22;8356;51.214;3.270;2022-11-20T05:37:02;205.20;2252.80
16491;DHT22;8356;51.214;3.270;2022-11-20T05:39:27;205.70;2252.80
16491;DHT22;8356;51.214;3.270;2022-11-20T05:41:53;205.70;2252.80
16491;DHT22;8356;51.214;3.270;2022-11-20T05:44:39;205.60;2252.80
16491;DHT22;8356;51.214;3.270;2022-11-20T05:47:05;205.70;2252.80
16491;DHT22;8356;51.214;3.270;2022-11-20T05:49:31;205.70;2252.80
16491;DHT22;8356;51.214;3.270;2022-11-20T05:51:57;230.40;2252.80
16491;DHT22;8356;51.214;3.270;2022-11-20T05:54:23;230.40;2252.80
16491;DHT22;8356;51.214;3.270;2022-11-20T05:56:49;230.40;2252.80
16491;DHT22;8356;51.214;3.270;2022-11-20T05:59:14;230.60;2252.80
16491;DHT22;8356;51.214;3.270;2022-11-20T06:01:40;230.50;2252.80
16491;DHT22;8356;51.214;3.270;2022-11-20T06:04:06;230.50;2252.80
16491;DHT22;8356;51.214;3.270;2022-11-20T06:06:31;230.40;2252.80
16491;DHT22;8356;51.214;3.270;2022-11-20T06:08:57;230.50;2252.80
16491;DHT22;8356;51.214;3.270;2022-11-20T06:11:24;230.40;2252.80
16491;DHT22;8356;51.214;3.270;2022-11-20T06:13:50;230.40;2252.80
16491;DHT22;8356;51.214;3.270;2022-11-20T06:16:18;205.70;2252.80
16491;DHT22;8356;51.214;3.270;2022-11-20T06:18:44;230.40;2252.80
16491;DHT22;8356;51.214;3.270;2022-11-20T06:21:12;230.50;2252.80
16491;DHT22;8356;51.214;3.270;2022-11-20T06:23:38;230.60;2252.80
16491;DHT22;8356;51.214;3.270;2022-11-20T06:26:06;230.60;2252.80
16491;DHT22;8356;51.214;3.270;2022-11-20T06:28:32;230.60;2252.80
16491;DHT22;8356;51.214;3.270;2022-11-20T06:30:58;230.50;2252.80
16491;DHT22;8356;51.214;3.270;2022-11-20T06:33:24;230.60;2252.80
16491;DHT22;8356;51.214;3.270;2022-11-20T06:35:49;230.60;2252.80
16491;DHT22;8356;51.214;3.270;2022-11-20T06:38:15;230.60;2252.80
16491;DHT22;8356;51.214;3.270;2022-11-20T06:40:42;230.60;2252.80
16491;DHT22;8356;51.214;3.270;2022-11-20T06:43:11;230.60;2252.80
16491;DHT22;8356;51.214;3.270;2022-11-20T06:45:37;230.60;2252.80
16491;DHT22;8356;51.214;3.270;2022-11-20T06:48:03;230.70;2252.80
16491;DHT22;8356;51.214;3.270;2022-11-20T06:50:29;230.80;2252.80
16491;DHT22;8356;51.214;3.270;2022-11-20T06:52:54;230.80;2252.80
16491;DHT22;8356;51.214;3.270;2022-11-20T06:55:20;230.70;2252.80
16491;DHT22;8356;51.214;3.270;2022-11-20T06:57:46;230.80;2252.80
16491;DHT22;8356;51.214;3.270;2022-11-20T07:00:12;230.80;2252.80
16491;DHT22;8356;51.214;3.270;2022-11-20T07:02:37;230.80;2252.80
16491;DHT22;8356;51.214;3.270;2022-11-20T07:05:03;230.70;2252.80
16491;DHT22;8356;51.214;3.270;2022-11-20T07:07:29;230.90;2252.80
16491;DHT22;8356;51.214;3.270;2022-11-20T07:09:55;230.90;2252.80
16491;DHT22;8356;51.214;3.270;2022-11-20T07:12:20;230.80;2252.80
16491;DHT22;8356;51.214;3.270;2022-11-20T07:14:46;230.80;2252.80
16491;DHT22;8356;51.214;3.270;2022-11-20T07:17:12;230.80;2252.80
16491;DHT22;8356;51.214;3.270;2022-11-20T07:19:37;230.80;2252.80
16491;DHT22;8356;51.214;3.270;2022-11-20T07:22:04;230.90;2252.80
16491;DHT22;8356;51.214;3.270;2022-11-20T07:24:30;230.90;2252.80
16491;DHT22;8356;51.214;3.270;2022-11-20T07:26:55;230.90;2252.80
16491;DHT22;8356;51.214;3.270;2022-11-20T07:29:21;230.70;2252.80
16491;DHT22;8356;51.214;3.270;2022-11-20T07:31:46;230.70;2252.80
16491;DHT22;8356;51.214;3.270;2022-11-20T07:34:12;230.80;2252.80
16491;DHT22;8356;51.214;3.270;2022-11-20T07:36:38;230.80;2252.80
16491;DHT22;8356;51.214;3.270;2022-11-20T07:39:04;230.90;2252.80
16491;DHT22;8356;51.214;3.270;2022-11-20T07:41:30;231.00;2252.80
16491;DHT22;8356;51.214;3.270;2022-11-20T07:43:56;231.00;2252.80
16491;DHT22;8356;51.214;3.270;2022-11-20T07:46:22;230.90;2252.80
16491;DHT22;8356;51.214;3.270;2022-11-20T07:48:47;231.00;2252.80
16491;DHT22;8356;51.214;3.270;2022-11-20T07:51:13;230.90;2252.80
16491;DHT22;8356;51.214;3.270;2022-11-20T07:53:39;230.90;2252.80
16491;DHT22;8356;51.214;3.270;2022-11-20T07:56:04;231.00;2252.80
16491;DHT22;8356;51.214;3.270;2022-11-20T07:58:30;230.90;2252.80
16491;DHT22;8356;51.214;3.270;2022-11-20T08:01:02;231.00;2252.80
16491;DHT22;8356;51.214;3.270;2022-11-20T08:03:28;231.10;2252.80
16491;DHT22;8356;51.214;3.270;2022-11-20T08:05:54;231.10;2252.80
16491;DHT22;8356;51.214;3.270;2022-11-20T08:08:19;231.10;2252.80
16491;DHT22;8356;51.214;3.270;2022-11-20T08:10:46;231.10;2252.80
16491;DHT22;8356;51.214;3.270;2022-11-20T08:13:12;231.10;2252.80
16491;DHT22;8356;51.214;3.270;2022-11-20T08:15:56;231.20;2252.80
16491;DHT22;8356;51.214;3.270;2022-11-20T08:18:21;231.20;2252.80
16491;DHT22;8356;51.214;3.270;2022-11-20T08:20:47;231.20;2252.80
16491;DHT22;8356;51.214;3.270;2022-11-20T08:23:13;231.30;2252.80
16491;DHT22;8356;51.214;3.270;2022-11-20T08:25:39;231.30;2252.80
16491;DHT22;8356;51.214;3.270;2022-11-20T08:28:07;231.20;2252.80
16491;DHT22;8356;51.214;3.270;2022-11-20T08:30:33;231.20;2252.80
16491;DHT22;8356;51.214;3.270;2022-11-20T08:33:07;231.20;2252.80
16491;DHT22;8356;51.214;3.270;2022-11-20T08:35:35;231.20;2252.80
16491;DHT22;8356;51.214;3.270;2022-11-20T08:38:02;231.20;2252.80
16491;DHT22;8356;51.214;3.270;2022-11-20T08:40:27;231.30;2252.80
16491;DHT22;8356;51.214;3.270;2022-11-20T08:42:53;256.00;2252.80
16491;DHT22;8356;51.214;3.270;2022-11-20T08:45:19;256.20;2252.80
16491;DHT22;8356;51.214;3.270;2022-11-20T08:47:45;256.00;2252.80
16491;DHT22;8356;51.214;3.270;2022-11-20T08:50:13;231.30;2252.80
16491;DHT22;8356;51.214;3.270;2022-11-20T08:52:38;256.10;2252.80
16491;DHT22;8356;51.214;3.270;2022-11-20T08:55:05;256.00;2252.80
16491;DHT22;8356;51.214;3.270;2022-11-20T08:57:32;256.00;2252.80
16491;DHT22;8356;51.214;3.270;2022-11-20T08:59:58;256.10;2252.80
16491;DHT22;8356;51.214;3.270;2022-11-20T09:02:24;256.00;2252.80
16491;DHT22;8356;51.214;3.270;2022-11-20T09:04:49;256.00;2252.80
16491;DHT22;8356;51.214;3.270;2022-11-20T09:07:15;256.00;2252.80
16491;DHT22;8356;51.214;3.270;2022-11-20T09:09:41;256.00;2252.80
16491;DHT22;8356;51.214;3.270;2022-11-20T09:12:07;256.20;2252.80
16491;DHT22;8356;51.214;3.270;2022-11-20T09:14:32;256.20;2252.80
16491;DHT22;8356;51.214;3.270;2022-11-20T09:16:59;256.10;2252.80
16491;DHT22;8356;51.214;3.270;2022-11-20T09:19:24;256.10;2252.80
16491;DHT22;8356;51.214;3.270;2022-11-20T09:21:51;256.20;2252.80
16491;DHT22;8356;51.214;3.270;2022-11-20T09:24:17;256.30;2252.80
16491;DHT22;8356;51.214;3.270;2022-11-20T09:26:43;256.30;2252.80
16491;DHT22;8356;51.214;3.270;2022-11-20T09:29:08;256.40;2252.80
16491;DHT22;8356;51.214;3.270;2022-11-20T09:31:34;256.50;2252.80
16491;DHT22;8356;51.214;3.270;2022-11-20T09:34:00;256.60;2252.80
16491;DHT22;8356;51.214;3.270;2022-11-20T09:36:25;256.60;2252.80
16491;DHT22;8356;51.214;3.270;2022-11-20T09:38:51;256.80;2252.80
16491;DHT22;8356;51.214;3.270;2022-11-20T09:44:51;256.70;2252.80
16491;DHT22;8356;51.214;3.270;2022-11-20T09:55:38;256.70;2252.80
16491;DHT22;8356;51.214;3.270;2022-11-20T09:58:16;256.80;2252.80
16491;DHT22;8356;51.214;3.270;2022-11-20T10:00:44;256.80;2252.80
16491;DHT22;8356;51.214;3.270;2022-11-20T10:05:46;256.90;2252.80
16491;DHT22;8356;51.214;3.270;2022-11-20T10:08:28;256.90;2252.80
16491;DHT22;8356;51.214;3.270;2022-11-20T10:11:13;281.60;2278.40
16491;DHT22;8356;51.214;3.270;2022-11-20T10:16:56;281.80;2278.40
16491;DHT22;8356;51.214;3.270;2022-11-20T10:25:20;282.10;2278.40
16491;DHT22;8356;51.214;3.270;2022-11-20T10:30:41;282.50;2278.40
16491;DHT22;8356;51.214;3.270;2022-11-20T10:33:21;282.50;2278.40
16491;DHT22;8356;51.214;3.270;2022-11-20T10:36:04;282.50;2278.40
16491;DHT22;8356;51.214;3.270;2022-11-20T10:39:00;282.50;2278.40
16491;DHT22;8356;51.214;3.270;2022-11-20T10:41:36;307.20;2304.00
16491;DHT22;8356;51.214;3.270;2022-11-20T10:44:21;307.20;2304.00
16491;DHT22;8356;51.214;3.270;2022-11-20T10:47:18;307.20;2304.00
16491;DHT22;8356;51.214;3.270;2022-11-20T10:49:50;307.30;2304.00
16491;DHT22;8356;51.214;3.270;2022-11-20T10:58:18;307.20;2304.00
16491;DHT22;8356;51.214;3.270;2022-11-20T11:00:47;307.20;2304.00
16491;DHT22;8356;51.214;3.270;2022-11-20T11:03:28;307.20;2304.00
16491;DHT22;8356;51.214;3.270;2022-11-20T11:06:03;307.20;2304.00
16491;DHT22;8356;51.214;3.270;2022-11-20T11:08:38;307.20;2304.00
16491;DHT22;8356;51.214;3.270;2022-11-20T11:11:26;282.50;2278.40
16491;DHT22;8356;51.214;3.270;2022-11-20T11:13:53;307.20;2304.00
16491;DHT22;8356;51.214;3.270;2022-11-20T11:16:29;307.30;2304.00
16491;DHT22;8356;51.214;3.270;2022-11-20T11:21:30;307.30;2304.00
16491;DHT22;8356;51.214;3.270;2022-11-20T11:24:03;307.20;2304.00
16491;DHT22;8356;51.214;3.270;2022-11-20T11:26:30;282.50;2278.40
16491;DHT22;8356;51.214;3.270;2022-11-20T11:28:59;307.20;2304.00
16491;DHT22;8356;51.214;3.270;2022-11-20T11:31:33;282.50;2278.40
16491;DHT22;8356;51.214;3.270;2022-11-20T11:34:13;282.40;2278.40
16491;DHT22;8356;51.214;3.270;2022-11-20T11:36:39;282.30;2278.40
16491;DHT22;8356;51.214;3.270;2022-11-20T11:39:16;282.30;2278.40
16491;DHT22;8356;51.214;3.270;2022-11-20T11:41:43;282.30;2278.40
16491;DHT22;8356;51.214;3.270;2022-11-20T11:44:30;332.90;2329.60
16491;DHT22;8356;51.214;3.270;2022-11-20T11:47:23;282.20;2278.40
16491;DHT22;8356;51.214;3.270;2022-11-20T11:50:00;282.20;2278.40
16491;DHT22;8356;51.214;3.270;2022-11-20T11:52:25;282.10;2278.40
16491;DHT22;8356;51.214;3.270;2022-11-20T11:54:57;282.30;2278.40
16491;DHT22;8356;51.214;3.270;2022-11-20T12:00:18;282.20;2278.40
16491;DHT22;8356;51.214;3.270;2022-11-20T12:05:24;282.00;2278.40
16491;DHT22;8356;51.214;3.270;2022-11-20T12:08:57;282.10;2278.40
16491;DHT22;8356;51.214;3.270;2022-11-20T12:10:57;282.00;2278.40
16491;DHT22;8356;51.214;3.270;2022-11-20T12:13:44;282.00;2278.40
16491;DHT22;8356;51.214;3.270;2022-11-20T12:16:13;282.00;2278.40
16491;DHT22;8356;51.214;3.270;2022-11-20T12:18:40;282.00;2278.40
16491;DHT22;8356;51.214;3.270;2022-11-20T12:21:32;281.90;2278.40
16491;DHT22;8356;51.214;3.270;2022-11-20T12:30:21;281.80;2278.40
16491;DHT22;8356;51.214;3.270;2022-11-20T12:50:37;281.90;2278.40
16491;DHT22;8356;51.214;3.270;2022-11-20T12:58:44;281.90;2278.40
16491;DHT22;8356;51.214;3.270;2022-11-20T13:01:25;281.90;2278.40
16491;DHT22;8356;51.214;3.270;2022-11-20T13:06:56;281.90;2278.40
16491;DHT22;8356;51.214;3.270;2022-11-20T13:09:23;281.90;2278.40
16491;DHT22;8356;51.214;3.270;2022-11-20T13:14:58;282.00;2278.40
16491;DHT22;8356;51.214;3.270;2022-11-20T13:17:33;282.10;2278.40
16491;DHT22;8356;51.214;3.270;2022-11-20T13:20:01;282.10;2278.40
16491;DHT22;8356;51.214;3.270;2022-11-20T13:22:42;282.10;2278.40
16491;DHT22;8356;51.214;3.270;2022-11-20T13:25:10;282.20;2278.40
16491;DHT22;8356;51.214;3.270;2022-11-20T13:27:35;282.20;2278.40
16491;DHT22;8356;51.214;3.270;2022-11-20T13:30:18;282.30;2278.40
16491;DHT22;8356;51.214;3.270;2022-11-20T13:32:56;282.50;2278.40
16491;DHT22;8356;51.214;3.270;2022-11-20T13:38:20;282.30;2278.40
16491;DHT22;8356;51.214;3.270;2022-11-20T13:41:01;282.20;2278.40
16491;DHT22;8356;51.214;3.270;2022-11-20T13:43:49;282.30;2278.40
16491;DHT22;8356;51.214;3.270;2022-11-20T13:46:15;282.50;2278.40
16491;DHT22;8356;51.214;3.270;2022-11-20T13:48:44;282.40;2278.40
16491;DHT22;8356;51.214;3.270;2022-11-20T13:59:37;307.40;2304.00
16491;DHT22;8356;51.214;3.270;2022-11-20T14:02:14;307.40;2304.00
16491;DHT22;8356;51.214;3.270;2022-11-20T14:04:46;307.30;2304.00
16491;DHT22;8356;51.214;3.270;2022-11-20T14:07:13;307.30;2304.00
16491;DHT22;8356;51.214;3.270;2022-11-20T14:09:38;307.20;2304.00
16491;DHT22;8356;51.214;3.270;2022-11-20T14:12:15;307.20;2304.00
16491;DHT22;8356;51.214;3.270;2022-11-20T14:14:51;307.20;2304.00
16491;DHT22;8356;51.214;3.270;2022-11-20T14:17:20;307.20;2304.00
16491;DHT22;8356;51.214;3.270;2022-11-20T14:19:46;307.20;2304.00
16491;DHT22;8356;51.214;3.270;2022-11-20T14:22:22;307.20;2304.00
16491;DHT22;8356;51.214;3.270;2022-11-20T14:25:21;307.30;2304.00
16491;DHT22;8356;51.214;3.270;2022-11-20T14:27:52;307.40;2304.00
16491;DHT22;8356;51.214;3.270;2022-11-20T14:30:25;307.40;2304.00
16491;DHT22;8356;51.214;3.270;2022-11-20T14:32:54;307.40;2304.00
16491;DHT22;8356;51.214;3.270;2022-11-20T14:37:51;307.40;2304.00
16491;DHT22;8356;51.214;3.270;2022-11-20T14:40:34;307.50;2304.00
16491;DHT22;8356;51.214;3.270;2022-11-20T14:43:01;307.50;2304.00
16491;DHT22;8356;51.214;3.270;2022-11-20T14:45:27;307.50;2304.00
16491;DHT22;8356;51.214;3.270;2022-11-20T14:47:55;307.50;2304.00
16491;DHT22;8356;51.214;3.270;2022-11-20T14:50:26;307.40;2304.00
16491;DHT22;8356;51.214;3.270;2022-11-20T14:52:53;307.50;2304.00
16491;DHT22;8356;51.214;3.270;2022-11-20T14:55:37;307.50;2304.00
16491;DHT22;8356;51.214;3.270;2022-11-20T14:58:06;307.50;2304.00
16491;DHT22;8356;51.214;3.270;2022-11-20T15:00:33;307.50;2304.00
16491;DHT22;8356;51.214;3.270;2022-11-20T15:03:00;307.50;2304.00
16491;DHT22;8356;51.214;3.270;2022-11-20T15:05:45;307.50;2304.00
16491;DHT22;8356;51.214;3.270;2022-11-20T15:08:13;307.60;2304.00
16491;DHT22;8356;51.214;3.270;2022-11-20T15:10:45;307.50;2304.00
16491;DHT22;8356;51.214;3.270;2022-11-20T15:13:13;307.50;2304.00
16491;DHT22;8356;51.214;3.270;2022-11-20T15:15:52;307.50;2304.00
16491;DHT22;8356;51.214;3.270;2022-11-20T15:18:22;307.50;2304.00
16491;DHT22;8356;51.214;3.270;2022-11-20T15:20:50;307.50;2304.00
16491;DHT22;8356;51.214;3.270;2022-11-20T15:23:17;307.50;2304.00
16491;DHT22;8356;51.214;3.270;2022-11-20T15:25:44;307.40;2304.00
16491;DHT22;8356;51.214;3.270;2022-11-20T15:28:18;307.70;2304.00
16491;DHT22;8356;51.214;3.270;2022-11-20T15:30:46;307.40;2304.00
16491;DHT22;8356;51.214;3.270;2022-11-20T15:33:12;307.50;2304.00
16491;DHT22;8356;51.214;3.270;2022-11-20T15:35:38;307.40;2304.00
16491;DHT22;8356;51.214;3.270;2022-11-20T15:38:04;307.40;2304.00
16491;DHT22;8356;51.214;3.270;2022-11-20T15:40:29;307.40;2304.00
16491;DHT22;8356;51.214;3.270;2022-11-20T15:42:55;307.50;2304.00
16491;DHT22;8356;51.214;3.270;2022-11-20T15:48:09;307.50;2304.00
16491;DHT22;8356;51.214;3.270;2022-11-20T15:53:40;307.50;2304.00
16491;DHT22;8356;51.214;3.270;2022-11-20T15:56:11;307.50;2304.00
16491;DHT22;8356;51.214;3.270;2022-11-20T15:58:38;307.50;2304.00
16491;DHT22;8356;51.214;3.270;2022-11-20T16:01:04;307.40;2304.00
16491;DHT22;8356;51.214;3.270;2022-11-20T16:03:29;307.30;2304.00
16491;DHT22;8356;51.214;3.270;2022-11-20T16:05:55;307.30;2304.00
16491;DHT22;8356;51.214;3.270;2022-11-20T16:08:21;307.20;2304.00
16491;DHT22;8356;51.214;3.270;2022-11-20T16:10:46;307.20;2304.00
16491;DHT22;8356;51.214;3.270;2022-11-20T16:13:14;307.20;2304.00
16491;DHT22;8356;51.214;3.270;2022-11-20T16:16:01;307.20;2304.00
16491;DHT22;8356;51.214;3.270;2022-11-20T16:18:30;307.20;2304.00
16491;DHT22;8356;51.214;3.270;2022-11-20T16:20:56;282.50;2278.40
16491;DHT22;8356;51.214;3.270;2022-11-20T16:23:22;307.20;2304.00
16491;DHT22;8356;51.214;3.270;2022-11-20T16:25:48;307.20;2304.00
16491;DHT22;8356;51.214;3.270;2022-11-20T16:28:14;307.20;2304.00
16491;DHT22;8356;51.214;3.270;2022-11-20T16:30:40;307.20;2304.00
16491;DHT22;8356;51.214;3.270;2022-11-20T16:33:11;307.30;2304.00
16491;DHT22;8356;51.214;3.270;2022-11-20T16:35:37;307.30;2304.00
16491;DHT22;8356;51.214;3.270;2022-11-20T16:38:03;307.20;2304.00
16491;DHT22;8356;51.214;3.270;2022-11-20T16:40:28;307.20;2304.00
16491;DHT22;8356;51.214;3.270;2022-11-20T16:42:54;282.50;2278.40
16491;DHT22;8356;51.214;3.270;2022-11-20T16:45:20;282.50;2278.40
16491;DHT22;8356;51.214;3.270;2022-11-20T16:47:46;282.40;2278.40
16491;DHT22;8356;51.214;3.270;2022-11-20T16:50:12;282.40;2278.40
16491;DHT22;8356;51.214;3.270;2022-11-20T16:52:38;282.50;2278.40